createdAt,value
2018-07-02T00:00:09.143Z,1.10
2018-07-02T00:02:38.041Z,0.83
2018-07-02T00:05:07.008Z,0.93
2018-07-02T00:07:35.912Z,1.00
2018-07-02T00:10:05.150Z,0.97
2018-07-02T00:12:34.042Z,0.90
2018-07-02T00:15:02.943Z,1.07
2018-07-02T00:17:31.826Z,0.90
2018-07-02T00:20:00.702Z,0.90
2018-07-02T00:22:29.583Z,1.00
2018-07-02T00:24:58.460Z,0.80
2018-07-02T00:27:27.349Z,1.10
2018-07-02T00:29:56.222Z,0.90
2018-07-02T00:32:25.134Z,0.90
2018-07-02T00:34:54.033Z,0.90
2018-07-02T00:37:22.927Z,1.10
2018-07-02T00:39:51.850Z,1.00
2018-07-02T00:42:20.826Z,0.87
2018-07-02T00:44:49.715Z,0.93
2018-07-02T00:47:18.594Z,0.97
2018-07-02T00:49:47.466Z,1.00
2018-07-02T00:52:16.355Z,1.03
2018-07-02T00:54:45.226Z,1.00
2018-07-02T00:57:14.124Z,1.00
2018-07-02T00:59:42.998Z,1.00
2018-07-02T01:02:11.681Z,0.90
2018-07-02T01:04:40.431Z,0.80
2018-07-02T01:07:09.410Z,1.00
2018-07-02T01:09:38.297Z,0.90
2018-07-02T01:12:07.218Z,1.00
2018-07-02T01:14:36.180Z,0.93
2018-07-02T01:17:05.086Z,1.00
2018-07-02T01:19:33.962Z,0.90
2018-07-02T01:22:02.858Z,0.87
2018-07-02T01:24:31.747Z,0.90
2018-07-02T01:27:00.665Z,0.90
2018-07-02T01:29:29.513Z,1.03
2018-07-02T01:31:58.382Z,1.20
2018-07-02T01:34:27.280Z,1.00
2018-07-02T01:36:56.174Z,0.80
2018-07-02T01:39:25.066Z,0.80
2018-07-02T01:41:53.945Z,0.87
2018-07-02T01:44:22.942Z,0.90
2018-07-02T01:46:51.826Z,0.80
2018-07-02T01:49:20.706Z,0.87
2018-07-02T01:51:49.590Z,0.90
2018-07-02T01:54:18.503Z,1.00
2018-07-02T01:56:47.398Z,0.90
2018-07-02T01:59:16.339Z,1.00
2018-07-02T02:01:45.226Z,0.90
2018-07-02T02:04:14.174Z,0.87
2018-07-02T02:06:43.096Z,0.90
2018-07-02T02:09:12.226Z,0.90
2018-07-02T02:11:41.135Z,0.80
2018-07-02T02:14:10.041Z,0.90
2018-07-02T02:16:38.944Z,0.87
2018-07-02T02:19:08.224Z,0.90
2018-07-02T02:21:37.295Z,1.10
2018-07-02T02:24:06.220Z,0.90
2018-07-02T02:26:35.091Z,0.90
2018-07-02T02:29:03.983Z,0.83
2018-07-02T02:31:32.879Z,1.00
2018-07-02T02:34:01.760Z,0.90
2018-07-02T02:36:30.665Z,0.70
2018-07-02T02:38:59.553Z,0.87
2018-07-02T02:41:28.434Z,0.77
2018-07-02T02:43:57.322Z,0.80
2018-07-02T02:46:26.228Z,0.73
2018-07-02T02:48:55.117Z,0.80
2018-07-02T02:51:24.015Z,1.00
2018-07-02T02:53:52.902Z,0.80
2018-07-02T02:56:21.805Z,0.80
2018-07-02T02:58:50.741Z,0.77
2018-07-02T03:01:19.618Z,0.90
2018-07-02T03:03:48.503Z,0.80
2018-07-02T03:06:17.416Z,1.00
2018-07-02T03:08:46.294Z,0.90
2018-07-02T03:11:15.182Z,0.80
2018-07-02T03:13:44.287Z,1.10
2018-07-02T03:16:13.211Z,0.90
2018-07-02T03:18:42.110Z,0.80
2018-07-02T03:21:12.289Z,0.90
2018-07-02T03:23:41.162Z,0.90
2018-07-02T03:26:10.476Z,1.10
2018-07-02T03:28:39.361Z,1.10
2018-07-02T03:31:08.272Z,1.00
2018-07-02T03:33:37.166Z,1.20
2018-07-02T03:36:06.081Z,1.13
2018-07-02T03:38:34.975Z,0.97
2018-07-02T03:41:03.874Z,0.90
2018-07-02T03:43:32.842Z,1.00
2018-07-02T03:46:01.755Z,1.30
2018-07-02T03:48:30.684Z,0.90
2018-07-02T03:50:59.579Z,1.20
2018-07-02T03:53:28.514Z,1.07
2018-07-02T03:55:57.418Z,0.90
2018-07-02T03:58:26.370Z,1.20
2018-07-02T04:00:55.554Z,1.13
2018-07-02T04:03:24.763Z,1.10
2018-07-02T04:05:53.687Z,1.30
2018-07-02T04:08:22.590Z,1.00
2018-07-02T04:10:51.479Z,0.90
2018-07-02T04:13:20.394Z,1.20
2018-07-02T04:15:49.314Z,1.30
2018-07-02T04:18:18.475Z,1.20
2018-07-02T04:20:47.368Z,1.13
2018-07-02T04:23:16.263Z,1.10
2018-07-02T04:25:45.151Z,1.20
2018-07-02T04:28:14.058Z,1.20
2018-07-02T04:30:42.938Z,0.97
2018-07-02T04:33:11.838Z,1.13
2018-07-02T04:35:40.731Z,0.90
2018-07-02T04:38:09.621Z,1.10
2018-07-02T04:40:38.514Z,0.90
2018-07-02T04:43:07.415Z,0.90
2018-07-02T04:45:36.304Z,1.00
2018-07-02T04:48:05.370Z,1.00
2018-07-02T04:50:34.335Z,1.00
2018-07-02T04:53:03.298Z,0.90
2018-07-02T04:55:32.228Z,0.90
2018-07-02T04:58:01.605Z,1.00
2018-07-02T05:00:30.517Z,0.90
2018-07-02T05:02:59.527Z,1.00
2018-07-02T05:05:28.446Z,1.10
2018-07-02T05:07:57.427Z,1.27
2018-07-02T05:10:26.002Z,1.10
2018-07-02T05:12:54.768Z,1.07
2018-07-02T05:15:23.760Z,1.10
2018-07-02T05:17:52.637Z,1.20
2018-07-02T05:20:21.597Z,1.33
2018-07-02T05:22:50.482Z,1.37
2018-07-02T05:25:19.392Z,1.10
2018-07-02T05:27:48.278Z,1.30
2018-07-02T05:30:17.182Z,1.40
2018-07-02T05:32:46.089Z,1.30
2018-07-02T05:35:14.994Z,1.23
2018-07-02T05:37:43.894Z,1.40
2018-07-02T05:40:12.799Z,1.10
2018-07-02T05:42:41.698Z,1.10
2018-07-02T05:45:10.644Z,1.30
2018-07-02T05:47:39.482Z,1.17
2018-07-02T05:50:08.383Z,1.20
2018-07-02T05:52:37.263Z,1.07
2018-07-02T05:55:06.167Z,1.00
2018-07-02T05:57:35.059Z,1.03
2018-07-02T06:00:04.323Z,1.00
2018-07-02T06:02:33.231Z,1.23
2018-07-02T06:05:02.361Z,1.50
2018-07-02T06:07:31.259Z,1.40
2018-07-02T06:10:00.160Z,1.53
2018-07-02T06:12:29.078Z,1.30
2018-07-02T06:14:57.958Z,1.30
2018-07-02T06:17:26.871Z,1.20
2018-07-02T06:19:55.778Z,1.30
2018-07-02T06:22:24.675Z,1.30
2018-07-02T06:24:53.605Z,1.20
2018-07-02T06:27:22.450Z,0.90
2018-07-02T06:29:51.330Z,1.00
2018-07-02T06:32:20.222Z,1.00
2018-07-02T06:34:49.116Z,0.80
2018-07-02T06:37:17.997Z,1.00
2018-07-02T06:39:46.884Z,1.27
2018-07-02T06:42:15.798Z,1.00
2018-07-02T06:44:44.707Z,1.20
2018-07-02T06:47:13.618Z,0.90
2018-07-02T06:49:42.505Z,0.90
2018-07-02T06:52:11.405Z,1.20
2018-07-02T06:54:40.284Z,1.10
2018-07-02T06:57:09.187Z,0.97
2018-07-02T06:59:38.071Z,1.10
2018-07-02T07:02:06.953Z,1.13
2018-07-02T07:04:35.842Z,0.83
2018-07-02T07:07:04.734Z,1.07
2018-07-02T07:09:33.610Z,1.10
2018-07-02T07:12:02.529Z,0.93
2018-07-02T07:14:31.412Z,1.10
2018-07-02T07:17:00.322Z,0.90
2018-07-02T07:19:29.256Z,1.00
2018-07-02T07:21:58.257Z,1.10
2018-07-02T07:24:27.142Z,1.10
2018-07-02T07:26:56.023Z,1.10
2018-07-02T07:29:24.929Z,1.10
2018-07-02T07:31:53.816Z,1.00
2018-07-02T07:34:22.724Z,0.90
2018-07-02T07:36:51.615Z,0.90
2018-07-02T07:39:20.528Z,0.63
2018-07-02T07:41:49.419Z,0.90
2018-07-02T07:44:18.324Z,0.80
2018-07-02T07:46:47.619Z,0.70
2018-07-02T07:49:16.531Z,0.87
2018-07-02T07:51:45.422Z,0.90
2018-07-02T07:54:14.319Z,0.83
2018-07-02T07:56:43.202Z,0.80
2018-07-02T07:59:12.484Z,0.80
2018-07-02T08:01:41.344Z,0.70
2018-07-02T08:04:10.268Z,0.60
2018-07-02T08:06:39.163Z,0.80
2018-07-02T08:09:09.142Z,0.70
2018-07-02T08:11:38.063Z,0.63
2018-07-02T08:14:06.995Z,0.73
2018-07-02T08:16:35.990Z,0.70
2018-07-02T08:19:04.899Z,0.67
2018-07-02T08:21:33.798Z,0.70
2018-07-02T08:24:02.737Z,0.70
2018-07-02T08:26:31.623Z,0.60
2018-07-02T08:29:00.527Z,0.87
2018-07-02T08:31:29.407Z,0.70
2018-07-02T08:33:58.302Z,0.90
2018-07-02T08:36:27.191Z,0.80
2018-07-02T08:38:56.093Z,0.80
2018-07-02T08:41:24.993Z,0.57
2018-07-02T08:43:54.266Z,0.60
2018-07-02T08:46:23.142Z,0.70
2018-07-02T08:48:52.049Z,0.80
2018-07-02T08:51:20.922Z,0.60
2018-07-02T08:53:49.820Z,0.50
2018-07-02T08:56:18.699Z,0.70
2018-07-02T08:58:47.595Z,0.90
2018-07-02T09:01:16.479Z,0.80
2018-07-02T09:03:45.150Z,0.70
2018-07-02T09:06:13.947Z,0.50
2018-07-02T09:08:42.621Z,0.87
2018-07-02T09:11:11.554Z,0.70
2018-07-02T09:13:40.673Z,0.70
2018-07-02T09:16:09.580Z,0.70
2018-07-02T09:18:38.558Z,0.70
2018-07-02T09:21:07.471Z,0.87
2018-07-02T09:23:36.385Z,0.53
2018-07-02T09:26:05.606Z,0.87
2018-07-02T09:28:34.491Z,1.10
2018-07-02T09:31:03.388Z,0.70
2018-07-02T09:33:32.267Z,0.90
2018-07-02T09:36:01.157Z,0.73
2018-07-02T09:38:30.035Z,0.90
2018-07-02T09:40:58.935Z,0.83
2018-07-02T09:43:27.818Z,0.65
2018-07-02T09:45:56.767Z,0.80
2018-07-02T09:48:25.718Z,0.68
2018-07-02T09:50:54.616Z,0.60
2018-07-02T09:53:23.507Z,0.80
2018-07-02T09:55:52.487Z,0.80
2018-07-02T09:58:21.465Z,0.85
2018-07-02T10:00:50.374Z,0.75
2018-07-02T10:03:19.259Z,0.70
2018-07-02T10:05:48.169Z,0.53
2018-07-02T10:08:17.066Z,0.82
2018-07-02T10:10:45.983Z,0.80
2018-07-02T10:13:14.873Z,0.88
2018-07-02T10:15:43.831Z,0.70
2018-07-02T10:18:12.717Z,0.80
2018-07-02T10:20:41.627Z,0.50
2018-07-02T10:23:10.522Z,0.75
2018-07-02T10:25:39.435Z,0.70
2018-07-02T10:28:08.341Z,0.55
2018-07-02T10:30:37.242Z,0.50
2018-07-02T10:33:06.145Z,0.70
2018-07-02T10:35:35.044Z,0.57
2018-07-02T10:38:03.943Z,0.30
2018-07-02T10:40:32.843Z,0.53
2018-07-02T10:43:01.738Z,0.65
2018-07-02T10:45:30.624Z,0.30
2018-07-02T10:47:59.514Z,0.53
2018-07-02T10:50:28.432Z,0.60
2018-07-02T10:52:57.309Z,0.60
2018-07-02T10:55:26.203Z,0.82
2018-07-02T10:57:55.106Z,0.72
2018-07-02T11:00:24.007Z,0.75
2018-07-02T11:02:52.899Z,0.50
2018-07-02T11:05:21.803Z,0.80
2018-07-02T11:07:50.706Z,0.80
2018-07-02T11:10:19.606Z,0.50
2018-07-02T11:12:48.495Z,0.50
2018-07-02T11:15:17.406Z,0.70
2018-07-02T11:17:46.290Z,0.70
2018-07-02T11:20:15.258Z,0.50
2018-07-02T11:22:44.169Z,0.70
2018-07-02T11:25:13.118Z,0.90
2018-07-02T11:27:42.133Z,0.72
2018-07-02T11:30:11.018Z,1.20
2018-07-02T11:32:39.901Z,0.65
2018-07-02T11:35:08.800Z,0.90
2018-07-02T11:37:37.710Z,0.80
2018-07-02T11:40:06.598Z,0.42
2018-07-02T11:42:35.509Z,0.70
2018-07-02T11:45:04.682Z,0.70
2018-07-02T11:47:33.683Z,0.50
2018-07-02T11:50:02.582Z,0.93
2018-07-02T11:52:31.487Z,0.70
2018-07-02T11:55:00.374Z,1.00
2018-07-02T11:57:29.542Z,0.93
2018-07-02T11:59:58.371Z,0.70
2018-07-02T12:02:27.263Z,0.68
2018-07-02T12:04:56.139Z,0.70
2018-07-02T12:07:25.035Z,0.60
2018-07-02T12:09:53.971Z,0.90
2018-07-02T12:12:22.828Z,0.60
2018-07-02T12:14:51.730Z,0.85
2018-07-02T12:17:20.640Z,0.90
2018-07-02T12:19:49.588Z,0.60
2018-07-02T12:22:18.482Z,0.93
2018-07-02T12:24:47.362Z,0.70
2018-07-02T12:27:16.267Z,0.70
2018-07-02T12:29:45.142Z,0.65
2018-07-02T12:32:14.038Z,0.62
2018-07-02T12:34:42.922Z,0.62
2018-07-02T12:37:11.851Z,0.80
2018-07-02T12:39:40.760Z,0.80
2018-07-02T12:42:09.679Z,0.60
2018-07-02T12:44:38.555Z,0.45
2018-07-02T12:47:07.460Z,0.80
2018-07-02T12:49:36.345Z,0.80
2018-07-02T12:52:05.327Z,0.60
2018-07-02T12:54:34.219Z,0.70
2018-07-02T12:57:03.127Z,0.90
2018-07-02T12:59:32.050Z,0.90
2018-07-02T13:02:00.960Z,0.82
2018-07-02T13:04:29.831Z,0.98
2018-07-02T13:06:58.751Z,1.00
2018-07-02T13:09:27.748Z,1.55
2018-07-02T13:11:57.062Z,1.25
2018-07-02T13:14:25.958Z,1.20
2018-07-02T13:16:54.858Z,1.10
2018-07-02T13:19:23.741Z,1.15
2018-07-02T13:21:52.641Z,1.00
2018-07-02T13:24:21.527Z,1.30
2018-07-02T13:26:50.485Z,1.00
2018-07-02T13:29:19.287Z,0.90
2018-07-02T13:31:48.159Z,1.12
2018-07-02T13:34:17.054Z,0.82
2018-07-02T13:36:45.938Z,0.70
2018-07-02T13:39:14.827Z,0.68
2018-07-02T13:41:43.743Z,0.70
2018-07-02T13:44:12.614Z,0.70
2018-07-02T13:46:41.511Z,0.75
2018-07-02T13:49:10.416Z,0.88
2018-07-02T13:54:39.330Z,0.80
2018-07-02T13:57:09.517Z,1.00
2018-07-02T13:59:38.395Z,0.65
2018-07-02T14:02:07.282Z,0.80
2018-07-02T14:04:36.191Z,0.90
2018-07-02T14:07:05.134Z,0.50
2018-07-02T14:09:34.031Z,0.70
2018-07-02T14:12:02.930Z,0.60
2018-07-02T14:14:31.893Z,0.90
2018-07-02T14:17:00.726Z,0.85
2018-07-02T14:19:47.235Z,0.80
2018-07-02T14:22:18.269Z,0.57
2018-07-02T14:24:47.170Z,1.05
2018-07-02T14:27:16.100Z,0.70
2018-07-02T14:29:45.083Z,0.60
2018-07-02T14:32:13.971Z,0.90
2018-07-02T14:34:44.797Z,1.00
2018-07-02T14:37:15.509Z,0.85
2018-07-02T14:39:44.511Z,0.93
2018-07-02T14:42:13.399Z,1.02
2018-07-02T14:44:42.369Z,1.02
2018-07-02T14:47:11.171Z,1.00
2018-07-02T14:49:40.078Z,0.93
2018-07-02T14:52:08.986Z,1.22
2018-07-02T14:54:37.879Z,1.20
2018-07-02T14:57:06.785Z,0.95
2018-07-02T14:59:35.761Z,1.27
2018-07-02T15:02:04.658Z,1.00
2018-07-02T15:04:33.576Z,1.00
2018-07-02T15:07:02.476Z,1.10
2018-07-02T15:09:31.156Z,1.40
2018-07-02T15:12:00.037Z,1.30
2018-07-02T15:14:28.954Z,0.93
2018-07-02T15:16:57.866Z,0.90
2018-07-02T15:19:26.769Z,1.07
2018-07-02T15:21:55.643Z,1.25
2018-07-02T15:24:24.685Z,1.15
2018-07-02T15:26:53.748Z,1.22
2018-07-02T15:29:22.654Z,0.90
2018-07-02T15:31:52.010Z,0.80
2018-07-02T15:34:21.484Z,0.75
2018-07-02T15:36:50.154Z,1.02
2018-07-02T15:39:19.369Z,0.85
2018-07-02T15:41:48.382Z,1.00
2018-07-02T15:44:17.184Z,1.12
2018-07-02T15:46:46.106Z,1.10
2018-07-02T15:49:14.966Z,1.27
2018-07-02T15:51:43.874Z,1.40
2018-07-02T15:54:12.747Z,1.27
2018-07-02T15:56:41.674Z,1.20
2018-07-02T15:59:10.578Z,1.45
2018-07-02T16:01:39.580Z,1.17
2018-07-02T16:04:08.697Z,1.40
2018-07-02T16:06:37.720Z,1.30
2018-07-02T16:09:08.668Z,1.50
2018-07-02T16:11:37.459Z,1.70
2018-07-02T16:14:06.349Z,1.40
2018-07-02T16:16:35.258Z,1.70
2018-07-02T16:19:04.221Z,1.57
2018-07-02T16:21:33.110Z,1.72
2018-07-02T16:24:02.323Z,1.70
2018-07-02T16:26:31.239Z,1.62
2018-07-02T16:29:00.144Z,1.52
2018-07-02T16:31:29.280Z,1.42
2018-07-02T16:33:58.255Z,1.50
2018-07-02T16:36:27.347Z,1.42
2018-07-02T16:38:56.239Z,1.50
2018-07-02T16:41:25.339Z,1.50
2018-07-02T16:43:54.612Z,1.60
2018-07-02T16:46:23.626Z,1.12
2018-07-02T16:48:52.616Z,1.32
2018-07-02T16:51:21.697Z,1.40
2018-07-02T16:53:50.667Z,1.40
2018-07-02T16:56:19.606Z,1.67
2018-07-02T16:58:49.045Z,1.20
2018-07-02T17:01:18.054Z,1.20
2018-07-02T17:03:47.142Z,1.30
2018-07-02T17:06:16.597Z,1.40
2018-07-02T17:08:45.470Z,1.20
2018-07-02T17:11:14.654Z,1.27
2018-07-02T17:13:43.703Z,1.40
2018-07-02T17:16:12.640Z,1.20
2018-07-02T17:18:41.530Z,1.20
2018-07-02T17:21:10.419Z,1.27
2018-07-02T17:23:39.309Z,1.40
2018-07-02T17:26:08.508Z,1.30
2018-07-02T17:28:37.411Z,1.50
2018-07-02T17:31:06.607Z,1.30
2018-07-02T17:33:35.489Z,1.30
2018-07-02T17:36:04.431Z,1.50
2018-07-02T17:38:33.484Z,1.15
2018-07-02T17:41:06.914Z,1.32
2018-07-02T17:43:35.910Z,1.12
2018-07-02T17:46:04.859Z,1.37
2018-07-02T17:48:33.746Z,1.20
2018-07-02T17:51:02.679Z,1.40
2018-07-02T17:53:31.591Z,1.30
2018-07-02T17:56:00.483Z,1.47
2018-07-02T17:58:30.028Z,1.32
2018-07-02T18:01:00.151Z,1.20
2018-07-02T18:03:31.708Z,1.37
2018-07-02T18:06:01.843Z,1.40
2018-07-02T18:08:33.170Z,1.20
2018-07-02T18:11:04.442Z,1.50
2018-07-02T18:13:35.386Z,1.30
2018-07-02T18:16:06.293Z,1.25
2018-07-02T18:18:38.135Z,1.20
2018-07-02T18:21:10.004Z,1.32
2018-07-02T18:23:39.051Z,1.40
2018-07-02T18:26:07.952Z,1.30
2018-07-02T18:28:37.098Z,1.32
2018-07-02T18:31:06.018Z,1.32
2018-07-02T18:33:34.933Z,1.50
2018-07-02T18:36:03.838Z,1.30
2018-07-02T18:38:32.731Z,1.40
2018-07-02T18:41:01.645Z,1.45
2018-07-02T18:43:30.543Z,1.40
2018-07-02T18:45:59.681Z,1.20
2018-07-02T18:48:28.604Z,1.40
2018-07-02T18:50:57.474Z,1.30
2018-07-02T18:53:26.430Z,1.30
2018-07-02T18:55:55.322Z,1.33
2018-07-02T18:58:24.215Z,1.30
2018-07-02T19:00:53.131Z,1.40
2018-07-02T19:03:22.074Z,1.50
2018-07-02T19:05:51.038Z,1.33
2018-07-02T19:08:19.969Z,1.60
2018-07-02T19:10:48.862Z,1.80
2018-07-02T19:13:18.180Z,1.50
2018-07-02T19:15:47.469Z,1.37
2018-07-02T19:18:16.410Z,1.30
2018-07-02T19:20:45.347Z,1.30
2018-07-02T19:23:14.249Z,1.60
2018-07-02T19:25:43.174Z,1.70
2018-07-02T19:28:12.091Z,1.80
2018-07-02T19:30:41.151Z,1.90
2018-07-02T19:33:10.049Z,1.80
2018-07-02T19:35:38.947Z,1.70
2018-07-02T19:38:07.834Z,1.80
2018-07-02T19:40:36.723Z,1.53
2018-07-02T19:43:05.785Z,1.60
2018-07-02T19:45:34.822Z,1.80
2018-07-02T19:48:04.015Z,1.70
2018-07-02T19:50:32.931Z,1.70
2018-07-02T19:53:01.832Z,1.43
2018-07-02T19:55:30.767Z,1.90
2018-07-02T19:57:59.685Z,1.70
2018-07-02T20:00:28.633Z,1.80
2018-07-02T20:02:57.475Z,2.00
2018-07-02T20:05:26.387Z,1.80
2018-07-02T20:07:55.943Z,1.60
2018-07-02T20:10:24.851Z,1.57
2018-07-02T20:12:54.083Z,1.40
2018-07-02T20:15:23.008Z,1.80
2018-07-02T20:17:53.655Z,1.77
2018-07-02T20:20:24.196Z,1.70
2018-07-02T20:22:55.128Z,1.77
2018-07-02T20:25:25.682Z,1.73
2018-07-02T20:27:57.080Z,1.50
2018-07-02T20:30:29.123Z,2.00
2018-07-02T20:33:00.331Z,1.70
2018-07-02T20:35:31.765Z,1.70
2018-07-02T20:38:02.861Z,1.77
2018-07-02T20:40:33.902Z,1.83
2018-07-02T20:43:04.616Z,1.40
2018-07-02T20:45:35.455Z,1.70
2018-07-02T20:48:06.227Z,1.70
2018-07-02T20:50:36.962Z,1.70
2018-07-02T20:53:08.039Z,1.80
2018-07-02T20:55:38.356Z,2.10
2018-07-02T20:58:08.842Z,1.73
2018-07-02T21:00:39.739Z,1.60
2018-07-02T21:03:10.818Z,1.67
2018-07-02T21:05:41.985Z,1.80
2018-07-02T21:08:12.595Z,1.60
2018-07-02T21:10:41.807Z,1.90
2018-07-02T21:13:10.754Z,1.70
2018-07-02T21:15:39.776Z,1.70
2018-07-02T21:18:09.179Z,1.80
2018-07-02T21:20:39.003Z,1.67
2018-07-02T21:23:08.286Z,1.67
2018-07-02T21:25:37.291Z,1.87
2018-07-02T21:28:06.357Z,1.50
2018-07-02T21:30:35.268Z,1.57
2018-07-02T21:33:04.822Z,1.33
2018-07-02T21:35:34.182Z,1.40
2018-07-02T21:38:03.278Z,1.30
2018-07-02T21:40:32.610Z,1.60
2018-07-02T21:43:01.781Z,1.57
2018-07-02T21:45:30.954Z,1.33
2018-07-02T21:48:00.136Z,1.40
2018-07-02T21:50:29.408Z,1.37
2018-07-02T21:52:58.816Z,1.40
2018-07-02T21:55:27.925Z,1.40
2018-07-02T21:57:56.924Z,1.43
2018-07-02T22:00:25.824Z,1.40
2018-07-02T22:02:54.718Z,1.60
2018-07-02T22:05:23.688Z,1.50
2018-07-02T22:07:52.602Z,1.50
2018-07-02T22:10:21.607Z,1.50
2018-07-02T22:12:50.547Z,1.50
2018-07-02T22:15:19.483Z,1.80
2018-07-02T22:17:48.392Z,1.60
2018-07-02T22:20:17.310Z,1.70
2018-07-02T22:22:46.195Z,1.33
2018-07-02T22:25:15.102Z,1.47
2018-07-02T22:27:43.994Z,1.30
2018-07-02T22:30:12.926Z,1.60
2018-07-02T22:32:41.830Z,1.40
2018-07-02T22:35:10.726Z,1.60
2018-07-02T22:37:39.715Z,1.40
2018-07-02T22:40:08.620Z,1.50
2018-07-02T22:42:37.518Z,1.53
2018-07-02T22:45:06.730Z,1.33
2018-07-02T22:47:35.610Z,1.43
2018-07-02T22:50:04.531Z,1.43
2018-07-02T22:52:33.428Z,1.60
2018-07-02T22:55:02.348Z,1.67
2018-07-02T22:57:31.234Z,1.40
2018-07-02T23:00:00.150Z,1.50
2018-07-02T23:02:29.071Z,1.50
2018-07-02T23:04:57.980Z,1.33
2018-07-02T23:07:26.883Z,1.50
2018-07-02T23:09:55.795Z,1.40
2018-07-02T23:12:24.760Z,1.43
2018-07-02T23:14:53.663Z,1.40
2018-07-02T23:17:22.561Z,1.43
2018-07-02T23:19:51.469Z,1.40
2018-07-02T23:22:20.381Z,1.40
2018-07-02T23:24:49.294Z,1.50
2018-07-02T23:27:18.200Z,1.60
2018-07-02T23:30:07.519Z,1.50
2018-07-02T23:32:36.433Z,1.53
2018-07-02T23:35:05.350Z,1.40
2018-07-02T23:37:34.246Z,1.47
2018-07-02T23:40:03.191Z,1.70
2018-07-02T23:42:31.869Z,1.30
2018-07-02T23:45:00.660Z,1.30
2018-07-02T23:47:29.622Z,1.60
2018-07-02T23:49:58.547Z,1.50
2018-07-02T23:52:27.478Z,1.70
2018-07-02T23:54:56.396Z,1.60
2018-07-02T23:57:25.291Z,1.53
2018-07-02T23:59:54.261Z,1.63
